Time;durP1;ratioP1;P1;durP2;ratioP2;P2;SDS_P1;SDS_P2;PMS_P1;PMS_P2;Temp;Humidity;BMP_temperature;BMP_pressure;BME280_temperature;BME280_humidity;BME280_pressure;Samples;Min_cycle;Max_cycle;Signal;HPM_P1;HPM_P2
2022/12/30 00:01:21;;;;;;;5.50;1.40;;;8.50;99.90;;;6.92;100.00;100117.53;5006005;28;20034;-81
2022/12/30 00:03:48;;;;;;;8.13;1.55;;;8.40;99.90;;;6.89;100.00;100117.63;5019500;28;20056;-81
2022/12/30 00:06:17;;;;;;;8.93;1.20;;;8.40;99.90;;;6.88;100.00;100115.94;5022415;28;20037;-82
2022/12/30 00:08:55;;;;;;;8.23;1.00;;;8.30;99.90;;;6.81;100.00;100123.22;5022114;28;20026;-80
2022/12/30 00:11:33;;;;;;;8.43;1.30;;;8.30;99.90;;;6.80;100.00;100129.34;5012477;28;20061;-80
2022/12/30 00:34:44;;;;;;;6.70;1.00;;;8.10;99.90;;;6.53;100.00;100141.78;5023743;28;20655;-82
2022/12/30 00:37:10;;;;;;;11.02;1.92;;;8.10;99.90;;;6.50;100.00;100139.25;5022944;28;20117;-81
2022/12/30 00:39:35;;;;;;;6.13;1.10;;;8.00;99.90;;;6.50;100.00;100147.09;5020286;28;20125;-83
2022/12/30 00:44:48;;;;;;;4.97;1.00;;;8.00;99.90;;;6.38;100.00;100158.06;5021746;28;20520;-82
2022/12/30 00:47:14;;;;;;;10.77;1.20;;;7.90;99.90;;;6.32;100.00;100170.44;5019264;28;20030;-83
2022/12/30 00:57:56;;;;;;;5.82;1.02;;;7.70;99.90;;;6.12;100.00;100191.25;5021328;28;20056;-83
2022/12/30 01:00:22;;;;;;;8.25;1.17;;;7.60;99.90;;;6.02;100.00;100195.94;5004180;28;20438;-81
2022/12/30 01:02:47;;;;;;;7.60;1.10;;;7.60;99.90;;;6.00;100.00;100194.31;5019615;28;20025;-80
2022/12/30 01:05:13;;;;;;;9.73;0.75;;;7.60;99.90;;;5.94;100.00;100195.38;5018383;28;20040;-83
2022/12/30 01:07:39;;;;;;;3.70;0.90;;;7.50;99.90;;;5.97;100.00;100204.88;5005615;28;20120;-82
2022/12/30 01:10:11;;;;;;;9.10;1.00;;;7.50;99.90;;;6.01;100.00;100215.16;5005290;28;20498;-83
2022/12/30 01:12:37;;;;;;;5.75;0.95;;;7.50;99.90;;;5.98;100.00;100214.41;5004314;28;20124;-81
2022/12/30 01:15:04;;;;;;;6.85;0.93;;;7.50;99.90;;;5.97;100.00;100216.19;5023726;28;20036;-81
2022/12/30 01:17:39;;;;;;;5.20;0.80;;;7.50;99.90;;;5.97;100.00;100210.13;5022521;28;20050;-82
2022/12/30 01:20:07;;;;;;;5.07;0.80;;;7.50;99.90;;;5.97;100.00;100213.56;5016298;28;20532;-83
2022/12/30 01:22:33;;;;;;;6.07;1.00;;;7.50;99.90;;;5.96;100.00;100222.31;5022195;28;20401;-82
2022/12/30 01:25:04;;;;;;;3.88;0.70;;;7.50;99.90;;;5.93;100.00;100227.63;5025045;28;20044;-81
2022/12/30 01:27:32;;;;;;;7.47;1.10;;;7.50;99.90;;;5.92;100.00;100224.16;5021862;28;20030;-82
2022/12/30 01:29:59;;;;;;;6.65;1.17;;;7.40;99.90;;;5.87;100.00;100225.22;5023066;28;20409;-83
2022/12/30 01:32:32;;;;;;;8.48;1.02;;;7.40;99.90;;;5.87;100.00;100218.22;5023927;28;20021;-81
2022/12/30 01:34:58;;;;;;;7.40;0.98;;;7.40;99.90;;;5.85;100.00;100217.47;5008170;28;20430;-81
2022/12/30 01:37:24;;;;;;;4.90;0.95;;;7.40;99.90;;;5.86;100.00;100233.97;5023346;28;20105;-83
2022/12/30 01:39:50;;;;;;;18.35;1.90;;;7.40;99.90;;;5.82;100.00;100241.06;5022162;28;20505;-80
2022/12/30 01:42:29;;;;;;;6.30;1.13;;;7.30;99.90;;;5.82;100.00;100248.06;5020862;28;20037;-81
2022/12/30 01:44:56;;;;;;;6.72;1.00;;;7.30;99.90;;;5.80;100.00;100244.63;5024394;28;20029;-81
2022/12/30 01:47:53;;;;;;;11.80;1.55;;;7.30;99.90;;;5.77;100.00;100240.38;5024822;28;20037;-80
2022/12/30 01:51:01;;;;;;;10.90;1.25;;;7.30;99.90;;;5.76;100.00;100243.88;5038479;28;20571;-83
2022/12/30 01:53:37;;;;;;;12.77;1.75;;;7.30;99.90;;;5.70;100.00;100244.97;5009502;28;20049;-82
2022/12/30 01:56:16;;;;;;;8.70;1.50;;;7.30;99.90;;;5.70;100.00;100246.69;5024998;28;20517;-81
2022/12/30 01:59:15;;;;;;;13.13;1.60;;;7.20;99.90;;;5.67;100.00;100255.50;5024247;28;20030;-83
2022/12/30 02:01:42;;;;;;;10.43;1.73;;;7.20;99.90;;;5.68;100.00;100261.56;5021731;28;20160;-81
2022/12/30 02:04:15;;;;;;;10.45;1.85;;;7.20;99.90;;;5.69;100.00;100263.28;5020250;28;20568;-82
2022/12/30 02:07:18;;;;;;;7.05;1.58;;;7.20;99.90;;;5.67;100.00;100272.94;5023548;28;20104;-80
2022/12/30 02:09:46;;;;;;;10.80;1.80;;;7.20;99.90;;;5.72;100.00;100269.28;5026196;28;20033;-83
2022/12/30 02:12:24;;;;;;;10.40;1.38;;;7.30;99.90;;;5.79;100.00;100284.72;5004123;28;20033;-81
2022/12/30 02:15:01;;;;;;;16.02;1.90;;;7.30;99.90;;;5.79;100.00;100285.59;5006944;28;20034;-80
2022/12/30 02:17:56;;;;;;;17.83;2.53;;;7.30;99.90;;;5.86;100.00;100292.31;5023145;28;20033;-83
2022/12/30 02:21:14;;;;;;;10.13;1.52;;;7.30;99.90;;;5.83;100.00;100295.03;5023927;28;20091;-81
2022/12/30 02:24:28;;;;;;;8.55;1.35;;;7.30;99.90;;;5.86;100.00;100302.75;5022314;28;20438;-80
2022/12/30 02:27:30;;;;;;;11.45;1.95;;;7.40;99.90;;;5.89;100.00;100297.41;5006134;28;20120;-83
2022/12/30 02:31:00;;;;;;;17.35;2.28;;;7.40;99.90;;;5.88;100.00;100300.09;5020897;28;21248;-81
2022/12/30 02:34:00;;;;;;;13.52;1.80;;;7.40;99.90;;;5.90;100.00;100293.91;5023653;28;20060;-82
2022/12/30 02:36:59;;;;;;;11.48;1.90;;;7.40;99.90;;;5.93;100.00;100292.94;5032990;28;20107;-81
2022/12/30 02:39:44;;;;;;;11.13;1.63;;;7.40;99.90;;;5.89;100.00;100293.97;5006243;28;20033;-83
2022/12/30 02:45:42;;;;;;;13.27;1.73;;;7.40;99.90;;;5.87;100.00;100298.38;5021817;28;20060;-80
2022/12/30 02:48:25;;;;;;;16.92;2.20;;;7.40;99.90;;;5.82;100.00;100298.53;5022092;28;20022;-80
2022/12/30 02:53:40;;;;;;;11.45;2.60;;;7.30;99.90;;;5.70;100.00;100298.94;5020828;28;20032;-80
2022/12/30 02:56:08;;;;;;;11.60;1.85;;;7.30;99.90;;;5.70;100.00;100296.34;5024533;28;20348;-83
2022/12/30 02:58:44;;;;;;;11.10;2.17;;;7.30;99.90;;;5.68;100.00;100301.63;5022326;28;20029;-82
2022/12/30 03:04:51;;;;;;;13.07;2.00;;;7.20;99.90;;;5.53;100.00;100302.97;5018613;28;20053;-81
2022/12/30 03:07:36;;;;;;;15.52;2.30;;;7.10;99.90;;;5.42;100.00;100299.00;5022270;28;20109;-83
2022/12/30 03:13:25;;;;;;;14.25;2.50;;;6.90;99.90;;;5.28;100.00;100294.22;5019803;28;20052;-83
2022/12/30 03:16:10;;;;;;;9.38;1.80;;;6.90;99.90;;;5.24;100.00;100308.28;5023225;28;20461;-80
2022/12/30 03:18:42;;;;;;;13.98;1.92;;;6.80;99.90;;;5.24;100.00;100310.88;5020160;28;20425;-82
2022/12/30 03:21:11;;;;;;;16.13;1.98;;;6.80;99.90;;;5.19;100.00;100310.19;5021864;28;20624;-82
2022/12/30 03:27:30;;;;;;;12.98;2.03;;;6.70;99.90;;;5.10;100.00;100319.16;5021172;28;20050;-83
2022/12/30 03:29:44;;;;;;;11.90;1.98;;;6.70;99.90;;;5.03;100.00;100321.09;5014978;28;20050;-82
2022/12/30 03:32:17;;;;;;;11.75;1.88;;;6.70;99.90;;;5.05;100.00;100327.09;5003667;28;20113;-80
2022/12/30 03:34:53;;;;;;;17.55;1.85;;;6.60;99.90;;;5.05;100.00;100319.25;5019594;28;20033;-82
2022/12/30 03:37:39;;;;;;;11.90;1.58;;;6.60;99.90;;;5.01;100.00;100327.22;5021974;28;20022;-80
2022/12/30 03:40:18;;;;;;;11.90;1.85;;;6.60;99.90;;;4.98;100.00;100328.19;5012890;28;20046;-82
2022/12/30 03:42:58;;;;;;;11.30;2.08;;;6.60;99.90;;;4.99;100.00;100322.09;5016638;28;20065;-81
2022/12/30 03:45:25;;;;;;;17.58;2.05;;;6.60;99.90;;;5.02;100.00;100319.38;5007014;28;20038;-82
2022/12/30 03:47:50;;;;;;;17.40;2.30;;;6.60;99.90;;;4.96;100.00;100323.91;5021556;28;20057;-80
2022/12/30 03:50:17;;;;;;;14.45;2.00;;;6.50;99.90;;;4.89;100.00;100329.31;5018361;28;20052;-81
2022/12/30 03:52:43;;;;;;;18.40;2.45;;;6.50;99.90;;;4.82;100.00;100326.94;5020036;28;20092;-82
2022/12/30 03:55:18;;;;;;;11.25;2.00;;;6.40;99.90;;;4.77;100.00;100334.03;5022719;28;20557;-82
2022/12/30 03:57:43;;;;;;;16.80;2.95;;;6.40;99.90;;;4.75;100.00;100335.81;5020729;28;20029;-82
2022/12/30 04:00:10;;;;;;;21.15;2.30;;;6.40;99.90;;;4.70;100.00;100341.19;5004320;28;20053;-80
2022/12/30 04:02:44;;;;;;;17.70;2.00;;;6.30;99.90;;;4.68;100.00;100341.22;5019196;28;20041;-83
2022/12/30 04:05:10;;;;;;;17.80;2.70;;;6.30;99.90;;;4.66;100.00;100348.22;5010666;28;20068;-81
2022/12/30 04:07:35;;;;;;;20.27;2.47;;;6.30;99.90;;;4.65;100.00;100348.28;5021269;28;20088;-83
2022/12/30 04:10:05;;;;;;;15.25;2.42;;;6.30;99.90;;;4.65;100.00;100343.91;5020065;28;20065;-81
2022/12/30 04:12:32;;;;;;;15.50;2.00;;;6.30;99.90;;;4.64;100.00;100347.41;5005883;28;20025;-81
2022/12/30 04:14:57;;;;;;;22.05;2.58;;;6.20;99.90;;;4.61;100.00;100339.69;5018802;28;20022;-83
2022/12/30 04:17:24;;;;;;;14.88;2.45;;;6.30;99.90;;;4.61;100.00;100344.91;5018883;28;20036;-81
2022/12/30 04:19:49;;;;;;;13.63;2.33;;;6.20;99.90;;;4.61;100.00;100355.34;5020007;28;20065;-81
2022/12/30 04:22:15;;;;;;;13.80;2.22;;;6.20;99.90;;;4.64;100.00;100364.81;5020656;28;20091;-83
2022/12/30 04:24:41;;;;;;;14.20;2.10;;;6.20;99.90;;;4.67;100.00;100368.22;5005973;28;20129;-80
2022/12/30 04:27:12;;;;;;;25.52;2.67;;;6.30;99.90;;;4.75;100.00;100367.97;5017400;28;20033;-83
2022/12/30 04:29:38;;;;;;;16.00;2.50;;;6.30;99.90;;;4.84;100.00;100372.94;5020218;28;20050;-83
2022/12/30 04:32:04;;;;;;;19.38;2.90;;;6.40;99.90;;;4.91;100.00;100379.69;5022379;28;20508;-83
2022/12/30 04:34:30;;;;;;;18.45;2.45;;;6.50;99.90;;;4.99;100.00;100389.94;5002939;28;20564;-80
2022/12/30 04:36:58;;;;;;;27.73;3.45;;;6.50;99.90;;;5.06;100.00;100391.44;5019094;28;20089;-84
2022/12/30 04:39:24;;;;;;;33.25;2.70;;;6.60;99.90;;;5.11;100.00;100393.91;5026894;23;20058;-78
2022/12/30 04:41:52;;;;;;;19.25;2.95;;;6.60;99.90;;;5.12;100.00;100393.03;4980774;28;20045;-79
2022/12/30 04:44:18;;;;;;;16.73;2.65;;;6.70;99.90;;;5.18;100.00;100402.41;4996849;28;20026;-79
2022/12/30 04:46:44;;;;;;;25.50;2.80;;;6.70;99.90;;;5.14;100.00;100399.91;4996278;28;20406;-78
2022/12/30 04:49:10;;;;;;;22.33;3.33;;;6.70;99.90;;;5.13;100.00;100399.94;5004470;28;20042;-78
2022/12/30 04:51:36;;;;;;;24.02;2.90;;;6.70;99.90;;;5.13;100.00;100406.00;5000063;28;20161;-79
2022/12/30 04:54:02;;;;;;;23.52;2.80;;;6.70;99.90;;;5.11;100.00;100413.03;4998797;28;20030;-78
2022/12/30 04:56:35;;;;;;;19.10;2.90;;;6.70;99.90;;;5.13;100.00;100416.47;4981588;28;20026;-78
2022/12/30 04:59:01;;;;;;;17.52;2.58;;;6.70;99.90;;;5.12;100.00;100419.97;5003241;28;20042;-79
2022/12/30 05:01:27;;;;;;;18.58;2.90;;;6.70;99.90;;;5.10;100.00;100424.38;5003812;28;20033;-79
2022/12/30 05:03:53;;;;;;;20.67;2.75;;;6.60;99.90;;;5.05;100.00;100423.66;5015821;28;20147;-78
2022/12/30 05:06:18;;;;;;;27.80;3.33;;;6.70;99.90;;;5.12;100.00;100427.81;4997083;28;20038;-79
2022/12/30 05:08:52;;;;;;;20.65;3.85;;;6.70;99.90;;;5.22;100.00;100432.75;4999359;28;20474;-79
2022/12/30 05:11:18;;;;;;;20.80;2.97;;;6.80;99.90;;;5.28;100.00;100435.19;5003542;28;20040;-79
2022/12/30 05:13:43;;;;;;;25.20;3.67;;;6.80;99.90;;;5.37;100.00;100441.91;4983642;28;20121;-79
2022/12/30 05:16:09;;;;;;;16.40;2.95;;;6.80;99.90;;;5.35;100.00;100442.78;4998390;28;20125;-79
2022/12/30 05:18:40;;;;;;;22.20;3.72;;;6.80;99.90;;;5.28;100.00;100448.25;4997895;28;20453;-79
2022/12/30 05:21:06;;;;;;;20.85;3.50;;;6.80;99.90;;;5.23;100.00;100457.97;4983925;28;20038;-79
2022/12/30 05:26:16;;;;;;;23.98;4.05;;;6.80;99.90;;;5.22;100.00;100454.50;5003560;28;20048;-79
2022/12/30 05:28:48;;;;;;;19.90;3.75;;;6.70;99.90;;;5.19;100.00;100451.13;4999397;28;20041;-78
2022/12/30 05:31:16;;;;;;;31.55;3.85;;;6.70;99.90;;;5.16;100.00;100467.72;4997617;28;20030;-78
2022/12/30 05:33:42;;;;;;;29.08;3.08;;;6.70;99.90;;;5.10;100.00;100458.31;5004246;28;20537;-80
2022/12/30 05:36:09;;;;;;;26.27;3.75;;;6.70;99.90;;;5.08;100.00;100460.13;5000827;28;20095;-79
2022/12/30 05:38:38;;;;;;;28.63;3.85;;;6.70;99.90;;;5.10;100.00;100470.53;5001160;28;20521;-80
2022/12/30 05:41:08;;;;;;;30.70;3.58;;;6.60;99.90;;;5.06;100.00;100461.06;4996985;28;20048;-79
2022/12/30 05:43:34;;;;;;;15.07;2.95;;;6.60;99.90;;;5.01;100.00;100455.09;4996958;28;20031;-78
2022/12/30 05:46:00;;;;;;;31.30;3.67;;;6.60;99.90;;;4.99;100.00;100465.59;5001454;28;20577;-79
2022/12/30 05:48:26;;;;;;;17.05;3.45;;;6.60;99.90;;;4.99;100.00;100469.94;5000961;28;20056;-80
2022/12/30 05:50:54;;;;;;;22.60;3.65;;;6.50;99.90;;;4.98;100.00;100478.69;5003125;28;20032;-79
2022/12/30 05:53:20;;;;;;;21.23;3.13;;;6.50;99.90;;;4.94;100.00;100475.28;4995425;28;20073;-79
2022/12/30 05:55:45;;;;;;;26.98;3.65;;;6.50;99.90;;;4.91;100.00;100478.00;4999509;28;20579;-78
2022/12/30 05:58:12;;;;;;;18.70;2.72;;;6.50;99.90;;;4.89;100.00;100485.00;5004008;28;20030;-77
2022/12/30 06:00:38;;;;;;;17.85;3.38;;;6.50;99.90;;;4.87;100.00;100482.44;4985647;28;20066;-78
2022/12/30 06:03:04;;;;;;;26.73;3.30;;;6.40;99.90;;;4.88;100.00;100499.81;4984375;28;20506;-79
2022/12/30 06:05:30;;;;;;;24.33;3.95;;;6.40;99.90;;;4.88;100.00;100509.38;4998669;28;20414;-78
2022/12/30 06:08:01;;;;;;;23.77;3.17;;;;;;;4.85;100.00;100510.31;4984963;28;20031;-79
2022/12/30 06:10:26;;;;;;;21.40;3.15;;;6.40;99.90;;;4.81;100.00;100507.81;5001663;28;20065;-79
2022/12/30 06:12:52;;;;;;;19.63;2.90;;;6.40;99.90;;;4.83;100.00;100511.25;4981203;28;20116;-78
2022/12/30 06:15:18;;;;;;;25.25;3.42;;;6.40;99.90;;;4.83;100.00;100516.47;5002739;28;20124;-78
2022/12/30 06:17:44;;;;;;;27.13;3.22;;;6.40;99.90;;;4.82;100.00;100514.78;4999190;28;20042;-79
2022/12/30 06:20:10;;;;;;;21.92;3.15;;;6.40;99.90;;;4.82;100.00;100517.38;4980397;28;20106;-79
2022/12/30 06:22:44;;;;;;;25.98;3.28;;;6.40;99.90;;;4.81;100.00;100521.72;4997592;28;20029;-79
2022/12/30 06:25:10;;;;;;;30.80;4.13;;;6.30;99.90;;;4.76;100.00;100515.78;4999073;28;20053;-78
2022/12/30 06:27:36;;;;;;;26.58;3.78;;;6.30;99.90;;;4.75;100.00;100516.66;4998538;28;20035;-79
2022/12/30 06:30:03;;;;;;;26.15;3.15;;;6.30;99.90;;;4.78;100.00;100528.78;4996326;28;20022;-78
2022/12/30 06:32:32;;;;;;;18.48;3.08;;;6.30;99.90;;;4.77;100.00;100519.22;4996050;28;20410;-78
2022/12/30 06:34:58;;;;;;;24.42;3.47;;;6.30;99.90;;;4.76;100.00;100521.00;5000004;28;20069;-79
2022/12/30 06:37:23;;;;;;;28.20;3.85;;;6.30;99.90;;;4.79;100.00;100525.28;4996286;28;20034;-78
2022/12/30 06:39:49;;;;;;;20.85;3.28;;;6.30;99.90;;;4.80;100.00;100525.25;4995060;28;20035;-78
2022/12/30 06:42:15;;;;;;;33.47;4.10;;;6.30;99.90;;;4.81;100.00;100526.09;4999336;28;20120;-78
2022/12/30 06:44:41;;;;;;;26.52;3.38;;;6.30;99.90;;;4.80;100.00;100532.22;4998185;28;20563;-78
2022/12/30 06:47:08;;;;;;;18.83;2.67;;;6.40;99.90;;;4.81;100.00;100546.97;5000332;28;20105;-79
2022/12/30 06:49:37;;;;;;;17.67;3.85;;;6.40;99.90;;;4.84;100.00;100552.13;4997254;28;20491;-79
2022/12/30 06:52:03;;;;;;;22.20;3.05;;;6.40;99.90;;;4.84;100.00;100544.28;4983292;28;20031;-78
2022/12/30 06:54:28;;;;;;;18.83;3.22;;;6.40;99.90;;;4.84;100.00;100552.13;4984092;28;20033;-79
2022/12/30 06:56:54;;;;;;;21.55;3.63;;;6.40;99.90;;;4.81;100.00;100565.22;5001467;28;20765;-79
2022/12/30 06:59:20;;;;;;;18.75;2.90;;;6.40;99.90;;;4.76;100.00;100560.13;4999571;28;20033;-79
2022/12/30 07:01:46;;;;;;;20.67;3.63;;;6.30;99.90;;;4.74;100.00;100569.72;5003882;28;20037;-78
2022/12/30 07:04:12;;;;;;;31.48;4.47;;;6.30;99.90;;;4.75;100.00;100578.41;4997727;28;20105;-79
2022/12/30 07:06:40;;;;;;;22.05;3.55;;;6.30;99.90;;;4.70;100.00;100573.31;4983914;28;20036;-78
2022/12/30 07:09:06;;;;;;;30.00;3.65;;;6.30;99.90;;;4.72;100.00;100581.97;4995375;28;20161;-78
2022/12/30 07:11:32;;;;;;;22.02;2.95;;;6.30;99.90;;;4.70;100.00;100584.59;4997014;28;20450;-78
2022/12/30 07:13:58;;;;;;;26.10;3.70;;;6.30;99.90;;;4.66;100.00;100582.94;4999922;28;20042;-78
2022/12/30 07:16:25;;;;;;;23.48;3.53;;;6.30;99.90;;;4.65;100.00;100590.84;4981080;28;20585;-78
2022/12/30 07:18:52;;;;;;;18.30;3.03;;;6.30;99.90;;;4.62;100.00;100591.78;4998573;28;20095;-78
2022/12/30 07:21:20;;;;;;;20.50;3.08;;;6.20;99.90;;;4.61;100.00;100600.47;4995993;28;20517;-79
2022/12/30 07:23:46;;;;;;;28.58;4.03;;;6.20;99.90;;;4.61;100.00;100597.88;4999865;28;20041;-79
2022/12/30 07:26:12;;;;;;;23.27;3.30;;;6.20;99.90;;;4.57;100.00;100608.41;4977637;28;20027;-78
2022/12/30 07:28:38;;;;;;;26.02;4.03;;;6.20;99.90;;;4.54;100.00;100605.88;4997790;28;20122;-78
2022/12/30 07:31:04;;;;;;;22.95;3.13;;;6.10;99.90;;;4.50;100.00;100603.34;4999488;28;20061;-80
2022/12/30 07:33:30;;;;;;;24.98;3.75;;;6.10;99.90;;;4.54;100.00;100614.56;4999648;28;20026;-79
2022/12/30 07:36:00;;;;;;;33.72;4.10;;;6.10;99.90;;;4.55;100.00;100620.63;5016527;28;20128;-80
2022/12/30 07:38:26;;;;;;;31.42;3.70;;;6.10;99.90;;;4.54;100.00;100624.16;4994060;28;20041;-79
2022/12/30 07:40:51;;;;;;;27.10;3.45;;;6.10;99.90;;;4.56;100.00;100636.25;4996255;28;20030;-79
2022/12/30 07:43:17;;;;;;;31.98;3.75;;;6.10;99.90;;;4.56;100.00;100635.38;4997668;28;20030;-79
2022/12/30 07:45:43;;;;;;;24.50;3.58;;;6.10;99.90;;;4.59;100.00;100638.78;4997899;28;20031;-78
2022/12/30 07:48:09;;;;;;;26.75;3.65;;;6.10;99.90;;;4.60;100.00;100645.72;4999260;28;20097;-78
2022/12/30 07:50:40;;;;;;;28.63;3.60;;;6.20;99.90;;;4.64;100.00;100652.56;4983132;28;20121;-79
2022/12/30 07:53:06;;;;;;;26.83;3.38;;;6.20;99.90;;;4.68;100.00;100646.38;4998192;28;20026;-78
2022/12/30 07:55:32;;;;;;;19.83;3.75;;;6.20;99.90;;;4.75;100.00;100651.44;4998135;28;20034;-78
2022/12/30 07:57:58;;;;;;;36.95;4.55;;;6.20;99.90;;;4.80;100.00;100662.66;5000259;28;20460;-79
2022/12/30 08:00:32;;;;;;;34.58;4.13;;;6.20;99.90;;;4.85;100.00;100666.00;4992970;28;20034;-79
2022/12/30 08:02:58;;;;;;;18.65;3.05;;;6.30;99.90;;;4.87;100.00;100665.06;4978775;28;20038;-78
2022/12/30 08:05:23;;;;;;;25.05;3.17;;;6.30;99.90;;;4.86;100.00;100671.19;4995493;28;20500;-78
2022/12/30 08:07:53;;;;;;;28.40;3.72;;;6.40;99.90;;;4.95;100.00;100670.09;4996131;28;20034;-78
2022/12/30 08:10:24;;;;;;;26.02;3.70;;;6.40;99.90;;;4.91;100.00;100671.06;4997180;28;20037;-80
2022/12/30 08:12:50;;;;;;;21.83;3.53;;;6.40;99.90;;;4.94;100.00;100681.41;4979833;28;20061;-78
2022/12/30 08:15:16;;;;;;;21.30;3.10;;;6.40;99.90;;;4.90;100.00;100685.88;5012834;28;20165;-79
2022/12/30 08:17:42;;;;;;;23.17;3.53;;;6.40;99.90;;;4.87;100.00;100683.31;4980104;28;20053;-78
2022/12/30 08:20:09;;;;;;;21.90;3.17;;;6.40;99.90;;;4.87;100.00;100685.06;4993252;28;20041;-79
2022/12/30 08:22:43;;;;;;;30.60;3.20;;;6.40;99.90;;;4.93;100.00;100682.31;4997758;28;20201;-78
2022/12/30 08:25:09;;;;;;;20.00;3.10;;;6.40;99.90;;;4.97;100.00;100691.81;4995499;28;21180;-78
2022/12/30 08:27:35;;;;;;;29.27;3.60;;;6.50;99.90;;;5.05;100.00;100689.84;4982346;28;20045;-79
2022/12/30 08:30:00;;;;;;;26.15;3.42;;;6.50;99.90;;;5.10;100.00;100703.66;4998975;28;20044;-77
2022/12/30 08:32:26;;;;;;;30.85;3.60;;;6.50;99.90;;;5.20;100.00;100698.19;4995696;28;20026;-79
2022/12/30 08:35:03;;;;;;;18.85;2.80;;;6.60;99.90;;;5.21;99.61;100703.41;4996552;28;20418;-79
2022/12/30 08:37:28;;;;;;;20.25;2.80;;;6.60;99.90;;;5.21;99.15;100707.75;4995229;28;20027;-79
2022/12/30 08:39:54;;;;;;;24.63;3.63;;;6.70;99.90;;;5.26;98.42;100713.72;4999706;28;20121;-79
2022/12/30 08:42:22;;;;;;;26.08;3.80;;;6.70;99.90;;;5.28;98.21;100732.81;5000536;28;20033;-79
2022/12/30 08:44:48;;;;;;;28.45;3.60;;;6.70;99.90;;;5.28;97.92;100736.28;4987114;28;20108;-79
2022/12/30 08:47:14;;;;;;;22.52;3.30;;;6.70;99.90;;;5.21;97.76;100753.00;5001390;28;20036;-80
2022/12/30 08:49:40;;;;;;;36.85;4.03;;;6.70;99.90;;;5.26;97.81;100739.81;4998804;28;20034;-78
2022/12/30 08:52:06;;;;;;;22.30;3.20;;;6.70;99.90;;;5.23;97.56;100745.13;4998971;28;20026;-78
2022/12/30 08:54:31;;;;;;;22.48;3.50;;;6.70;99.90;;;5.26;97.50;100740.69;5000516;28;20105;-78
2022/12/30 08:56:57;;;;;;;25.08;3.30;;;6.70;99.90;;;5.26;97.43;100750.25;5002166;28;20087;-79
2022/12/30 08:59:23;;;;;;;19.90;3.22;;;6.70;99.90;;;5.26;96.97;100745.91;5001692;28;20601;-77
2022/12/30 09:01:49;;;;;;;24.95;3.60;;;6.70;99.90;;;5.33;97.05;100749.22;4998853;28;20054;-79
2022/12/30 09:04:17;;;;;;;28.35;3.60;;;6.80;99.90;;;5.33;96.95;100754.44;4997363;28;20038;-78
2022/12/30 09:06:45;;;;;;;19.60;2.78;;;6.80;99.90;;;5.36;96.63;100746.53;4984129;28;20558;-78
2022/12/30 09:09:13;;;;;;;18.13;3.03;;;6.80;99.90;;;5.39;96.39;100756.06;5002865;28;20094;-79
2022/12/30 09:11:42;;;;;;;20.38;3.20;;;6.80;99.90;;;5.42;95.91;100755.97;4987068;28;20022;-77
2022/12/30 09:14:16;;;;;;;22.73;2.88;;;6.90;99.90;;;5.44;96.03;100755.06;4998297;28;20034;-79
2022/12/30 09:16:42;;;;;;;25.45;3.13;;;6.90;99.90;;;5.50;95.93;100764.47;4987101;28;20067;-78
2022/12/30 09:19:11;;;;;;;21.23;3.35;;;6.90;99.90;;;5.50;95.75;100767.09;4999001;28;20050;-80
2022/12/30 09:21:43;;;;;;;19.42;2.67;;;7.00;99.90;;;5.55;95.27;100768.69;4983929;28;20034;-79
2022/12/30 09:24:12;;;;;;;20.10;3.75;;;7.00;99.90;;;5.59;95.26;100772.06;5000158;28;20045;-79
2022/12/30 09:26:37;;;;;;;23.40;3.17;;;7.00;99.90;;;5.61;94.87;100774.66;4994658;28;20183;-79
2022/12/30 09:29:09;;;;;;;20.08;3.33;;;7.00;99.90;;;5.60;95.28;100772.94;4998199;28;20658;-79
2022/12/30 09:31:40;;;;;;;21.00;3.40;;;7.10;99.90;;;5.62;94.83;100781.59;4997774;28;20598;-79
2022/12/30 09:34:06;;;;;;;18.58;2.85;;;7.10;99.90;;;5.73;94.57;100787.41;4997986;28;20034;-79
2022/12/30 09:36:37;;;;;;;19.58;2.88;;;7.20;99.90;;;5.85;94.56;100799.28;4998355;28;20033;-79
2022/12/30 09:39:10;;;;;;;18.13;2.70;;;7.20;99.90;;;5.92;93.86;100804.31;4999403;28;20050;-79
2022/12/30 09:45:30;;;;;;;22.50;3.60;;;7.40;99.90;;;6.00;92.92;100813.75;5000839;28;20040;-79
2022/12/30 09:48:08;;;;;;;28.42;3.60;;;7.50;99.90;;;6.10;92.85;100807.38;4985102;28;20048;-77
2022/12/30 09:50:59;;;;;;;16.88;2.65;;;7.50;99.90;;;6.18;92.50;100796.69;4982920;28;20049;-77
2022/12/30 09:53:50;;;;;;;24.98;2.60;;;7.70;99.90;;;6.32;91.50;100784.13;4994626;28;20054;-77
2022/12/30 09:56:36;;;;;;;25.00;3.33;;;7.80;99.90;;;6.52;90.80;100779.19;5000869;28;20088;-77
2022/12/30 09:59:33;;;;;;;20.55;3.25;;;7.90;99.90;;;6.61;90.08;100775.44;4984686;28;20491;-77
2022/12/30 10:02:27;;;;;;;25.50;3.33;;;8.00;99.90;;;6.77;89.41;100773.22;4995973;28;20071;-77
2022/12/30 10:05:01;;;;;;;15.40;2.70;;;8.10;99.90;;;6.81;88.86;100766.16;4985746;28;20038;-78
2022/12/30 10:08:26;;;;;;;21.23;3.55;;;8.20;99.90;;;6.83;88.63;100762.56;4999668;28;20100;-78
2022/12/30 10:11:26;;;;;;;20.45;3.30;;;8.40;99.90;;;6.95;87.59;100767.44;4988751;28;20578;-77
2022/12/30 10:14:42;;;;;;;22.05;2.80;;;8.60;99.90;;;7.04;87.57;100766.28;4983926;28;20048;-78
2022/12/30 10:17:49;;;;;;;20.27;3.00;;;8.60;99.90;;;7.16;86.66;100767.66;5003458;28;20042;-78
2022/12/30 10:20:48;;;;;;;21.17;3.20;;;8.70;99.90;;;7.19;86.58;100765.81;5000821;28;20037;-78
2022/12/30 10:23:26;;;;;;;24.33;2.95;;;8.70;99.90;;;7.30;86.29;100767.19;5012301;28;20049;-78
2022/12/30 10:26:15;;;;;;;15.93;2.97;;;8.60;99.90;;;7.26;86.23;100768.22;4997986;28;20038;-78
2022/12/30 10:29:30;;;;;;;16.02;2.50;;;8.70;99.90;;;7.28;86.23;100766.38;4982171;28;20034;-78
2022/12/30 10:32:09;;;;;;;16.10;3.10;;;8.70;99.90;;;7.35;86.09;100767.94;5000239;28;20034;-78
2022/12/30 10:34:39;;;;;;;19.25;2.85;;;8.70;99.90;;;7.34;86.58;100766.19;5001990;28;20049;-77
2022/12/30 10:37:13;;;;;;;23.02;3.28;;;8.70;99.90;;;7.28;86.46;100758.53;4981105;28;20655;-78
2022/12/30 10:39:50;;;;;;;23.00;3.42;;;8.60;99.90;;;7.27;86.65;100762.06;4996705;28;20387;-79
2022/12/30 10:42:26;;;;;;;17.38;3.00;;;8.60;99.90;;;7.23;86.26;100747.38;4997034;28;20037;-78
2022/12/30 10:45:54;;;;;;;21.10;3.38;;;8.60;99.90;;;7.17;87.19;100741.44;5013347;28;20038;-77
2022/12/30 10:49:19;;;;;;;20.75;3.53;;;8.60;99.90;;;7.09;87.19;100737.34;4999156;28;20403;-78
2022/12/30 10:51:47;;;;;;;19.75;3.28;;;8.50;99.90;;;7.12;87.57;100732.84;4996315;28;20077;-78
2022/12/30 10:54:16;;;;;;;19.48;3.42;;;8.50;99.90;;;7.08;87.18;100731.22;4995213;28;20033;-78
2022/12/30 10:56:47;;;;;;;27.88;3.80;;;8.50;99.90;;;7.08;87.01;100726.00;4985481;28;20124;-78
2022/12/30 11:02:46;;;;;;;30.95;3.38;;;8.50;99.90;;;7.02;87.63;100728.81;4995922;28;20094;-79
2022/12/30 11:05:40;;;;;;;20.35;3.28;;;8.40;99.90;;;6.99;87.87;100742.00;4997058;28;20027;-77
2022/12/30 11:08:39;;;;;;;24.15;3.63;;;8.50;99.90;;;7.02;88.34;100757.63;4999391;28;20026;-78
2022/12/30 11:11:07;;;;;;;17.58;3.47;;;8.50;99.90;;;7.03;87.99;100764.56;4998409;28;20113;-78
2022/12/30 11:16:30;;;;;;;21.55;3.33;;;8.50;99.90;;;7.12;88.38;100766.03;5001804;28;20045;-78
2022/12/30 11:19:02;;;;;;;19.23;3.33;;;8.50;99.90;;;7.19;88.47;100768.44;4998358;28;20025;-78
2022/12/30 11:21:35;;;;;;;17.70;2.95;;;8.60;99.90;;;7.21;88.14;100765.72;4998499;28;20054;-78
2022/12/30 11:24:05;;;;;;;22.17;3.53;;;8.60;99.90;;;7.13;88.51;100760.75;4999340;28;20083;-78
2022/12/30 11:26:33;;;;;;;18.02;2.92;;;8.60;99.90;;;7.11;88.50;100759.09;4996697;28;20052;-77
2022/12/30 11:29:17;;;;;;;31.33;4.57;;;8.50;99.90;;;7.05;88.82;100762.75;4994885;28;20030;-79
2022/12/30 11:31:53;;;;;;;26.02;3.72;;;8.50;99.90;;;6.99;88.46;100753.31;4993327;28;20026;-78
2022/12/30 11:34:31;;;;;;;23.23;3.42;;;8.50;99.90;;;7.03;88.72;100748.84;4998349;28;20402;-77
2022/12/30 11:36:58;;;;;;;26.35;3.88;;;8.50;99.90;;;7.04;89.75;100754.94;4999440;28;20343;-77
2022/12/30 11:39:30;;;;;;;23.35;3.55;;;8.50;99.90;;;7.01;89.47;100745.44;4995787;28;20104;-78